Time;durP1;ratioP1;P1;durP2;ratioP2;P2;SDS_P1;SDS_P2;PMS_P1;PMS_P2;Temp;Humidity;BMP_temperature;BMP_pressure;BME280_temperature;BME280_humidity;BME280_pressure;Samples;Min_cycle;Max_cycle;Signal;HPM_P1;HPM_P2
2022/12/29 00:01:52;;;;;;;0.97;0.50;;;;;;;16.24;56.33;96306.94;10396256;28;20817;-29
2022/12/29 00:06:53;;;;;;;0.63;0.60;;;;;;;16.27;55.70;96311.16;10398994;28;20037;-29
2022/12/29 00:11:53;;;;;;;1.50;0.80;;;;;;;16.28;55.76;96318.72;10399556;28;20029;-29
2022/12/29 00:16:54;;;;;;;0.93;0.50;;;;;;;16.26;55.94;96311.97;10397979;28;20215;-29
2022/12/29 00:53:49;;;;;;;0.90;0.43;;;;;;;16.25;55.89;96273.28;10377027;28;20049;-29
2022/12/29 00:58:50;;;;;;;0.63;0.47;;;;;;;16.21;55.92;96274.09;10391853;28;20030;-29
2022/12/29 01:03:50;;;;;;;1.20;0.70;;;;;;;16.25;55.83;96272.41;10392946;28;20167;-29
2022/12/29 01:10:09;;;;;;;1.37;0.60;;;;;;;16.25;55.96;96257.25;10394506;28;20369;-29
2022/12/29 01:14:11;;;;;;;1.05;0.43;;;;;;;16.25;55.99;96273.28;10391567;28;20041;-29
2022/12/29 01:19:14;;;;;;;0.80;0.57;;;;;;;16.23;56.04;96287.59;10391137;28;20033;-30
2022/12/29 01:24:16;;;;;;;0.70;0.50;;;;;;;16.25;56.30;96301.06;10392579;28;20045;-29
2022/12/29 01:29:17;;;;;;;0.30;0.30;;;;;;;16.29;56.00;96304.44;10396377;28;20437;-29
2022/12/29 01:34:19;;;;;;;0.73;0.60;;;;;;;16.21;56.02;96286.72;10393851;28;20065;-29
2022/12/29 01:39:20;;;;;;;0.60;0.50;;;;;;;16.25;55.78;96301.06;10392343;28;20487;-29
2022/12/29 01:44:45;;;;;;;0.70;0.50;;;;;;;16.24;56.06;96296.84;10399042;28;20042;-30
2022/12/29 01:49:45;;;;;;;0.82;0.50;;;;;;;16.24;55.98;96314.53;10399868;28;20098;-29
2022/12/29 01:54:52;;;;;;;0.57;0.45;;;;;;;16.24;55.94;96342.31;10399454;28;20093;-29
2022/12/29 02:00:00;;;;;;;0.43;0.40;;;;;;;16.19;56.01;96313.66;10399009;28;20038;-29
2022/12/29 02:05:24;;;;;;;1.23;0.50;;;;;;;16.23;56.21;96320.41;10402029;28;20061;-30
2022/12/29 02:10:27;;;;;;;0.43;0.28;;;;;;;16.23;56.25;96312.00;10401941;28;20556;-29
2022/12/29 02:15:30;;;;;;;1.10;0.52;;;;;;;16.23;55.96;96312.00;10397041;28;20029;-28
2022/12/29 02:20:57;;;;;;;0.55;0.45;;;;;;;16.22;56.24;96293.47;10401737;28;20045;-29
2022/12/29 02:26:26;;;;;;;0.65;0.50;;;;;;;16.22;56.08;96280.84;10396064;28;20048;-29
2022/12/29 02:32:02;;;;;;;1.98;0.50;;;;;;;16.17;56.39;96282.50;10402301;28;20048;-29
2022/12/29 02:37:33;;;;;;;1.20;0.77;;;;;;;16.21;56.31;96289.25;10392133;28;20026;-29
2022/12/29 02:42:38;;;;;;;0.75;0.52;;;;;;;16.22;56.27;96293.47;10399805;28;20057;-29
2022/12/29 02:47:48;;;;;;;0.75;0.47;;;;;;;16.23;56.16;96305.25;10398103;27;20499;-29
2022/12/29 02:53:00;;;;;;;0.70;0.70;;;;;;;16.24;56.03;96291.78;10450476;27;20128;-29
2022/12/29 02:58:22;;;;;;;0.43;0.30;;;;;;;16.23;55.94;96315.38;10395665;28;20518;-29
2022/12/29 03:03:29;;;;;;;1.00;0.70;;;;;;;16.23;56.34;96302.75;10392752;28;20038;-29
2022/12/29 03:08:57;;;;;;;1.10;0.50;;;;;;;16.23;56.09;96301.88;10396994;28;20026;-28
2022/12/29 03:19:50;;;;;;;1.05;0.50;;;;;;;16.24;56.01;96313.66;10389237;28;20040;-29
2022/12/29 03:24:57;;;;;;;0.80;0.50;;;;;;;16.22;55.98;96311.16;10424037;28;20034;-29
2022/12/29 03:30:01;;;;;;;0.70;0.30;;;;;;;16.23;55.81;96304.41;10395599;28;20438;-29
2022/12/29 03:35:05;;;;;;;1.15;0.73;;;;;;;16.18;56.29;96280.84;10394344;28;20063;-28
2022/12/29 03:40:06;;;;;;;0.70;0.50;;;;;;;16.17;55.96;96262.31;10399684;28;20125;-29
2022/12/29 03:45:07;;;;;;;1.00;0.40;;;;;;;16.22;56.06;96239.59;10399771;28;20026;-29
2022/12/29 03:50:08;;;;;;;0.90;0.32;;;;;;;16.20;56.12;96257.25;10395166;28;20045;-29
2022/12/29 03:55:13;;;;;;;0.40;0.35;;;;;;;16.21;55.91;96241.25;10395629;28;20095;-28
2022/12/29 04:00:14;;;;;;;0.35;0.30;;;;;;;16.19;56.10;96250.53;10398975;28;20169;-29
2022/12/29 04:05:21;;;;;;;0.60;0.50;;;;;;;16.24;56.33;96260.63;10391714;28;20118;-29
2022/12/29 04:10:23;;;;;;;0.63;0.45;;;;;;;16.16;55.82;96253.06;10391329;28;20044;-29
2022/12/29 04:15:27;;;;;;;0.68;0.40;;;;;;;16.24;56.13;96253.06;10394224;28;20057;-29
2022/12/29 04:25:47;;;;;;;0.50;0.50;;;;;;;16.21;56.22;96279.13;10392266;28;20514;-29
2022/12/29 04:30:49;;;;;;;0.70;0.50;;;;;;;16.09;56.04;96255.53;10398765;28;20044;-29
2022/12/29 04:35:53;;;;;;;0.50;0.50;;;;;;;16.19;55.92;96265.69;10392750;28;20406;-30
2022/12/29 04:40:54;;;;;;;0.70;0.60;;;;;;;16.21;55.91;96279.13;10395718;28;20120;-32
2022/12/29 04:45:57;;;;;;;0.47;0.45;;;;;;;16.17;56.10;96264.84;10391234;28;20445;-29
2022/12/29 04:51:02;;;;;;;1.00;0.85;;;;;;;16.27;55.83;96286.75;10397456;28;20164;-28
2022/12/29 04:56:09;;;;;;;;;;;;;;;16.27;55.66;96260.66;10420732;28;20034;-30
2022/12/29 05:01:10;;;;;;;1.05;0.50;;;;;;;16.23;55.45;96239.59;10454975;28;20349;-30
2022/12/29 05:06:10;;;;;;;0.77;0.37;;;;;;;16.27;55.96;96248.03;10399971;28;20480;-29
2022/12/29 05:11:10;;;;;;;3.60;0.40;;;;;;;16.28;55.69;96257.28;10397441;28;20284;-30
2022/12/29 05:16:11;;;;;;;1.88;0.65;;;;;;;16.30;56.08;96255.59;10499048;27;20037;-28
2022/12/29 05:21:12;;;;;;;0.40;0.20;;;;;;;16.25;56.16;96237.91;10404079;28;20033;-29
2022/12/29 05:26:14;;;;;;;0.95;0.65;;;;;;;16.35;55.66;96239.59;10399036;28;20038;-29
2022/12/29 05:31:44;;;;;;;0.65;0.30;;;;;;;16.37;55.35;96237.94;10426671;28;20380;-29
2022/12/29 05:36:45;;;;;;;8.23;0.60;;;;;;;16.39;55.91;96230.38;10405644;28;20025;-29
2022/12/29 05:41:47;;;;;;;0.70;0.32;;;;;;;16.35;55.93;96229.50;10398824;28;20025;-29
2022/12/29 05:47:00;;;;;;;7.43;1.15;;;;;;;16.29;54.50;96214.31;10375060;28;20544;-29
2022/12/29 05:52:15;;;;;;;3.45;1.35;;;;;;;16.32;55.17;96206.78;10402264;28;20044;-29
2022/12/29 05:57:15;;;;;;;7.80;2.13;;;;;;;16.23;56.39;96242.13;10403170;28;20041;-29
2022/12/29 06:02:18;;;;;;;4.72;2.25;;;;;;;16.26;56.26;96236.22;10398884;28;20964;-29
2022/12/29 06:07:19;;;;;;;8.37;1.90;;;;;;;16.31;56.33;96232.00;10396398;28;20029;-29
2022/12/29 06:12:21;;;;;;;12.77;3.33;;;;;;;16.30;56.08;96218.53;10393081;28;20288;-28
2022/12/29 06:17:23;;;;;;;7.07;2.13;;;;;;;16.36;56.40;96210.97;10401072;28;20025;-29
2022/12/29 06:22:25;;;;;;;7.15;3.72;;;;;;;16.29;56.56;96208.44;10394821;28;20034;-29
2022/12/29 06:27:25;;;;;;;6.70;2.17;;;;;;;16.29;56.60;96209.28;10399380;28;20514;-29
2022/12/29 06:32:26;;;;;;;8.48;2.28;;;;;;;16.32;56.74;96214.34;10400135;28;20789;-30
2022/12/29 06:37:30;;;;;;;9.05;2.40;;;;;;;16.24;56.75;96195.81;10399889;28;20402;-29
2022/12/29 06:42:30;;;;;;;4.87;2.10;;;;;;;16.31;57.03;96215.19;10397563;28;20036;-29
2022/12/29 06:48:00;;;;;;;6.15;2.38;;;;;;;16.30;56.58;96200.84;10410992;28;20296;-30
2022/12/29 06:53:00;;;;;;;3.83;1.93;;;;;;;16.28;56.94;96205.06;10398956;28;20030;-29
2022/12/29 06:58:01;;;;;;;7.53;2.00;;;;;;;16.25;57.03;96207.59;10396481;28;20721;-29
2022/12/29 07:03:01;;;;;;;6.05;2.10;;;;;;;16.19;56.65;96194.13;10397817;28;20033;-29
2022/12/29 07:08:01;;;;;;;3.37;1.90;;;;;;;16.23;56.78;96213.50;10397834;28;20491;-29
2022/12/29 07:13:02;;;;;;;6.93;1.60;;;;;;;16.31;57.07;96207.63;10396134;28;20292;-28
2022/12/29 07:18:03;;;;;;;3.50;3.17;;;;;;;16.31;57.31;96206.75;10399838;28;20041;-29
2022/12/29 07:23:03;;;;;;;4.28;1.63;;;;;;;16.30;57.39;96221.06;10394284;28;20037;-29
2022/12/29 07:28:04;;;;;;;4.00;1.63;;;;;;;16.28;56.78;96234.56;10396803;28;20029;-29
2022/12/29 07:33:04;;;;;;;1.70;1.33;;;;;;;16.28;56.89;96230.31;10394635;28;20300;-30
2022/12/29 07:38:05;;;;;;;2.22;1.50;;;;;;;16.26;57.33;96238.75;10399221;28;20080;-29
2022/12/29 07:43:05;;;;;;;2.40;2.20;;;;;;;16.26;57.58;96254.75;10399237;28;20025;-29
2022/12/29 07:48:13;;;;;;;5.75;1.67;;;;;;;16.23;57.17;96258.94;10397537;28;20801;-29
2022/12/29 07:53:13;;;;;;;4.23;2.43;;;;;;;16.20;57.33;96229.47;10396156;28;20045;-29
2022/12/29 07:58:13;;;;;;;3.67;1.57;;;;;;;16.16;57.44;96232.84;10395492;28;20064;-29
2022/12/29 08:03:14;;;;;;;2.30;1.87;;;;;;;16.19;57.33;96242.13;10395201;28;20037;-31
2022/12/29 08:08:14;;;;;;;1.70;1.50;;;;;;;16.27;57.14;96256.44;10395528;28;20041;-30
2022/12/29 08:13:14;;;;;;;2.00;1.40;;;;;;;16.30;56.72;96266.53;10398256;28;20468;-29
2022/12/29 08:18:15;;;;;;;2.72;1.23;;;;;;;16.28;57.17;96277.50;10393882;28;20288;-29
2022/12/29 08:23:15;;;;;;;2.80;1.53;;;;;;;16.27;57.06;96276.63;10393065;28;20037;-31
2022/12/29 08:28:16;;;;;;;1.20;1.10;;;;;;;16.27;57.44;96280.84;10398442;28;20120;-29
2022/12/29 08:33:16;;;;;;;3.43;1.40;;;;;;;16.20;57.47;96285.03;10393192;28;20304;-29
2022/12/29 08:38:17;;;;;;;3.90;1.40;;;;;;;16.18;57.82;96301.88;10398112;28;20570;-29
2022/12/29 08:43:18;;;;;;;1.95;1.23;;;;;;;16.23;57.39;96300.22;10388265;28;20296;-31
2022/12/29 08:48:19;;;;;;;2.25;1.33;;;;;;;16.26;57.52;96332.19;10396903;28;20026;-34
2022/12/29 08:53:20;;;;;;;1.52;1.13;;;;;;;16.16;57.35;96292.59;10401775;28;20517;-31
2022/12/29 08:58:20;;;;;;;1.70;1.60;;;;;;;16.28;57.58;96301.03;10407354;28;20052;-30
2022/12/29 09:03:22;;;;;;;1.50;1.40;;;;;;;16.28;57.35;96317.91;10399818;28;20037;-29
2022/12/29 09:08:22;;;;;;;1.20;1.10;;;;;;;16.22;57.21;96308.63;10402100;28;20548;-28
2022/12/29 09:13:23;;;;;;;1.35;1.20;;;;;;;16.23;57.80;96335.56;10400020;28;20055;-28
2022/12/29 09:18:23;;;;;;;2.30;1.42;;;;;;;16.18;57.49;96322.06;10398064;28;20037;-29
2022/12/29 09:23:24;;;;;;;1.80;1.50;;;;;;;16.22;57.64;96344.00;10397542;28;20037;-31
2022/12/29 09:28:24;;;;;;;1.42;1.33;;;;;;;16.26;57.17;96354.91;10403356;28;20042;-29
2022/12/29 09:33:25;;;;;;;1.70;1.30;;;;;;;16.16;57.50;96328.81;10403088;28;20040;-29
2022/12/29 09:38:27;;;;;;;1.77;1.25;;;;;;;16.14;57.59;96340.59;10403590;28;20504;-30
2022/12/29 09:43:45;;;;;;;1.50;0.93;;;;;;;16.28;57.12;96374.28;10405914;28;20121;-29
2022/12/29 09:48:53;;;;;;;1.58;0.95;;;;;;;16.24;57.31;96395.34;10397857;28;20037;-32
2022/12/29 09:53:58;;;;;;;1.30;1.13;;;;;;;16.25;57.49;96398.69;10400925;28;20041;-29
2022/12/29 09:59:14;;;;;;;1.38;1.10;;;;;;;16.18;57.16;96375.13;10396772;28;20395;-30
2022/12/29 10:04:15;;;;;;;3.70;1.20;;;;;;;16.23;57.20;96365.88;10397440;28;20041;-30
2022/12/29 10:09:34;;;;;;;1.00;0.93;;;;;;;16.19;57.39;96366.69;10399617;28;20052;-30
2022/12/29 10:14:53;;;;;;;1.58;1.17;;;;;;;16.23;57.37;96365.03;10394521;28;20117;-28
2022/12/29 10:20:12;;;;;;;0.85;0.85;;;;;;;16.22;57.50;96363.34;10400223;28;20479;-29
2022/12/29 10:25:22;;;;;;;0.90;0.90;;;;;;;16.23;57.64;96342.28;10397969;28;20037;-29
2022/12/29 10:30:23;;;;;;;1.13;1.00;;;;;;;16.25;57.05;96343.13;10394783;28;20112;-29
2022/12/29 10:35:29;;;;;;;1.52;1.35;;;;;;;16.23;57.42;96344.81;10405941;28;20037;-30
2022/12/29 10:40:37;;;;;;;0.90;0.90;;;;;;;16.21;57.71;96338.94;10399513;28;20049;-28
2022/12/29 10:45:39;;;;;;;1.38;1.20;;;;;;;16.19;57.87;96326.28;10392809;28;20038;-29
2022/12/29 10:50:42;;;;;;;1.80;1.30;;;;;;;16.24;57.35;96339.78;10403586;28;20122;-29
2022/12/29 10:55:43;;;;;;;1.00;0.90;;;;;;;16.26;57.33;96330.50;10397897;28;20044;-29
2022/12/29 11:00:50;;;;;;;1.30;1.20;;;;;;;16.26;57.15;96322.94;10399125;28;20040;-29
2022/12/29 11:06:21;;;;;;;1.70;1.13;;;;;;;16.25;57.34;96311.16;10397123;28;20065;-30
2022/12/29 11:11:32;;;;;;;1.58;1.13;;;;;;;16.19;57.16;96283.34;10395070;28;20045;-29
2022/12/29 11:16:34;;;;;;;1.10;0.98;;;;;;;16.10;56.92;96269.88;10390560;28;20491;-29
2022/12/29 11:21:42;;;;;;;1.00;0.80;;;;;;;16.26;57.25;96300.22;10395631;28;20061;-29
2022/12/29 11:26:44;;;;;;;0.90;0.90;;;;;;;16.27;57.33;96296.00;10396657;28;20049;-29
2022/12/29 11:31:49;;;;;;;1.00;0.93;;;;;;;16.30;56.96;96296.00;10395204;28;20411;-30
2022/12/29 11:36:51;;;;;;;2.17;1.00;;;;;;;16.32;56.52;96291.78;10398315;28;20491;-29
2022/12/29 11:41:53;;;;;;;0.93;0.93;;;;;;;16.32;56.97;96279.16;10402026;28;20409;-29
2022/12/29 11:46:54;;;;;;;1.23;1.02;;;;;;;16.34;56.96;96288.44;10394698;28;20078;-31
2022/12/29 11:51:56;;;;;;;1.10;0.93;;;;;;;16.35;56.71;96274.13;10399867;28;20033;-29
2022/12/29 11:56:59;;;;;;;1.10;0.82;;;;;;;16.32;57.28;96274.13;10394415;28;20447;-29
2022/12/29 12:02:03;;;;;;;1.60;1.30;;;;;;;16.36;56.76;96271.59;10393257;28;20547;-29
2022/12/29 12:07:14;;;;;;;1.17;0.90;;;;;;;16.41;56.94;96280.06;10391523;28;20108;-29
2022/12/29 12:12:44;;;;;;;1.15;1.02;;;;;;;16.32;56.83;96251.38;10398034;28;20036;-29
2022/12/29 12:17:51;;;;;;;0.70;0.70;;;;;;;16.32;57.11;96269.91;10418432;27;20491;-29
2022/12/29 12:23:06;;;;;;;1.48;1.05;;;;;;;16.35;57.01;96264.03;10392676;28;20037;-29
2022/12/29 12:28:25;;;;;;;1.10;1.00;;;;;;;16.35;56.67;96254.75;10394281;28;20033;-29
2022/12/29 12:33:34;;;;;;;1.00;0.90;;;;;;;16.31;56.88;96250.56;10395892;28;20087;-29
2022/12/29 12:38:47;;;;;;;1.10;0.85;;;;;;;16.31;56.75;96250.56;10390921;28;20065;-29
2022/12/29 12:44:00;;;;;;;1.45;0.90;;;;;;;16.25;57.04;96248.00;10388964;28;20613;-29
2022/12/29 12:49:12;;;;;;;1.05;1.00;;;;;;;16.24;56.84;96235.38;10397770;28;20372;-31
2022/12/29 12:54:51;;;;;;;1.10;1.00;;;;;;;16.26;56.75;96237.06;10394426;28;20436;-29
2022/12/29 13:00:00;;;;;;;1.05;0.95;;;;;;;16.25;56.93;96222.75;10392651;28;20045;-29
2022/12/29 13:05:10;;;;;;;1.00;0.90;;;;;;;16.15;57.38;96194.97;10393037;28;20064;-29
2022/12/29 13:10:21;;;;;;;0.60;0.60;;;;;;;16.23;57.13;96209.28;10391080;28;20068;-29
2022/12/29 13:16:00;;;;;;;0.90;0.90;;;;;;;16.26;57.39;96204.22;10394119;28;20045;-30
2022/12/29 13:21:11;;;;;;;0.77;0.77;;;;;;;16.25;57.29;96204.22;10395305;28;20041;-29
2022/12/29 13:26:20;;;;;;;0.70;0.70;;;;;;;16.28;56.48;96200.00;10392533;28;20037;-29
2022/12/29 13:31:39;;;;;;;0.98;0.85;;;;;;;16.30;56.76;96213.47;10394282;28;20025;-29
2022/12/29 13:36:54;;;;;;;0.95;0.95;;;;;;;16.21;56.86;96200.84;10395850;28;20037;-29
2022/12/29 13:41:56;;;;;;;0.88;0.80;;;;;;;16.29;56.96;96208.44;10399547;28;20026;-30
2022/12/29 13:47:00;;;;;;;2.35;0.95;;;;;;;16.25;56.93;96217.72;10393294;28;20108;-29
2022/12/29 13:52:19;;;;;;;7.93;3.90;;;;;;;16.03;56.18;96200.84;10396149;28;20034;-29
2022/12/29 13:57:25;;;;;;;2.58;1.50;;;;;;;16.18;57.04;96220.25;10392369;28;20056;-28
2022/12/29 14:02:44;;;;;;;3.42;1.92;;;;;;;16.19;57.23;96222.75;10393223;28;20046;-29
2022/12/29 14:07:45;;;;;;;6.07;1.95;;;;;;;16.14;57.21;96216.88;10387638;28;20037;-32
2022/12/29 14:12:46;;;;;;;6.32;2.38;;;;;;;16.11;57.92;96229.47;10398710;28;20046;-30
2022/12/29 14:18:04;;;;;;;4.35;2.15;;;;;;;16.06;58.17;96230.31;10397890;28;20034;-29
2022/12/29 14:23:07;;;;;;;7.60;2.17;;;;;;;16.04;58.21;96219.38;10392124;28;20038;-29
2022/12/29 14:28:33;;;;;;;6.70;1.90;;;;;;;16.16;58.17;96242.09;10395734;27;20041;-29
2022/12/29 14:33:34;;;;;;;5.70;2.08;;;;;;;16.21;58.25;96242.97;10396135;28;20052;-29
2022/12/29 14:38:44;;;;;;;8.40;1.77;;;;;;;16.25;58.39;96248.00;10398726;28;20041;-29
2022/12/29 14:43:57;;;;;;;10.40;1.90;;;;;;;16.34;57.36;96242.97;10393023;28;20033;-30
2022/12/29 14:49:00;;;;;;;6.45;2.00;;;;;;;16.34;56.61;96258.13;10394195;28;20086;-29
2022/12/29 14:54:33;;;;;;;4.07;1.40;;;;;;;16.34;56.38;96247.16;10397538;28;20664;-28
2022/12/29 14:59:34;;;;;;;3.08;1.67;;;;;;;16.25;56.75;96244.63;10402986;28;20939;-30
2022/12/29 15:04:35;;;;;;;8.40;2.15;;;;;;;16.36;56.76;96260.66;10395862;28;20132;-29
2022/12/29 15:09:51;;;;;;;3.47;1.40;;;;;;;16.35;56.95;96266.56;10397797;28;20033;-30
2022/12/29 15:14:57;;;;;;;3.05;1.75;;;;;;;16.37;56.74;96278.34;10397865;28;20206;-29
2022/12/29 15:20:00;;;;;;;2.90;1.88;;;;;;;16.34;57.40;96277.47;10398202;28;20033;-29
2022/12/29 15:25:00;;;;;;;4.60;2.17;;;;;;;16.38;57.06;96284.25;10395519;28;20590;-29
2022/12/29 15:30:03;;;;;;;3.70;2.20;;;;;;;16.40;56.78;96288.50;10399837;28;20036;-29
2022/12/29 15:35:24;;;;;;;7.05;3.10;;;;;;;16.41;57.05;96285.13;10396971;28;20288;-29
2022/12/29 15:40:28;;;;;;;9.85;3.45;;;;;;;16.36;57.32;96266.53;10397143;28;20045;-30
2022/12/29 15:45:35;;;;;;;9.43;3.50;;;;;;;16.42;57.10;96271.63;10399273;28;20041;-29
2022/12/29 15:50:36;;;;;;;;;;;;;;;16.38;58.00;96274.97;10393176;28;20056;-29
2022/12/29 15:55:39;;;;;;;11.45;4.10;;;;;;;16.24;58.30;96255.56;10396568;28;19920;-29
2022/12/29 16:00:48;;;;;;;9.25;3.90;;;;;;;16.40;58.13;96288.50;10397946;28;20125;-29
2022/12/29 16:06:06;;;;;;;11.18;4.57;;;;;;;16.34;58.29;96285.06;10394946;28;20048;-29
2022/12/29 16:11:27;;;;;;;16.02;4.85;;;;;;;16.36;58.35;96289.28;10394426;28;20037;-29
2022/12/29 16:16:36;;;;;;;11.30;4.28;;;;;;;16.36;58.59;96284.22;10393916;28;20037;-28
2022/12/29 16:21:36;;;;;;;7.18;4.75;;;;;;;16.30;58.44;96291.78;10392946;28;20503;-30
2022/12/29 16:26:38;;;;;;;10.13;4.90;;;;;;;16.40;58.46;96292.69;10394147;28;20147;-29
2022/12/29 16:31:51;;;;;;;12.00;3.67;;;;;;;16.42;58.36;96289.31;10396435;28;20505;-29
2022/12/29 16:36:54;;;;;;;11.25;4.65;;;;;;;16.46;58.93;96302.81;10514391;28;20372;-30
2022/12/29 16:41:55;;;;;;;14.10;4.10;;;;;;;16.48;58.91;96301.97;10442326;28;20037;-28
2022/12/29 16:46:57;;;;;;;8.98;3.33;;;;;;;16.51;58.25;96306.16;10485401;28;20462;-30
2022/12/29 16:51:58;;;;;;;12.27;3.45;;;;;;;16.43;59.82;96313.75;10459492;28;20027;-29
2022/12/29 16:56:59;;;;;;;18.55;4.38;;;;;;;16.47;59.79;96315.44;10486707;27;20031;-28
2022/12/29 17:02:05;;;;;;;21.40;3.88;;;;;;;16.60;59.22;96321.34;10487456;28;20038;-29
2022/12/29 17:07:17;;;;;;;11.07;2.87;;;;;;;16.57;59.03;96322.19;10414013;28;20096;-29
2022/12/29 17:12:21;;;;;;;13.40;4.05;;;;;;;16.48;59.81;96314.59;10518374;27;20042;-29
2022/12/29 17:17:35;;;;;;;7.82;2.75;;;;;;;16.53;58.94;96314.59;10433135;27;20407;-29
2022/12/29 17:22:35;;;;;;;11.38;3.15;;;;;;;16.60;58.38;96317.13;10392505;28;20048;-28
2022/12/29 17:27:44;;;;;;;6.55;3.60;;;;;;;16.62;59.01;96312.09;10406179;28;20647;-29
2022/12/29 17:32:50;;;;;;;12.20;3.70;;;;;;;16.62;58.99;96328.06;10404077;28;20045;-29
2022/12/29 17:37:51;;;;;;;7.23;2.70;;;;;;;16.53;58.96;96309.56;10404098;28;20044;-28
2022/12/29 17:42:55;;;;;;;8.55;2.97;;;;;;;16.58;59.12;96321.34;10402620;28;20034;-29
2022/12/29 17:48:00;;;;;;;7.97;3.22;;;;;;;16.57;59.42;96317.13;10401780;28;20145;-29
2022/12/29 17:53:04;;;;;;;9.98;3.88;;;;;;;16.60;59.27;96319.66;10399265;28;20030;-29
2022/12/29 17:58:26;;;;;;;9.90;3.22;;;;;;;16.61;59.41;96313.75;10401111;28;20039;-29
2022/12/29 18:03:30;;;;;;;7.00;2.95;;;;;;;16.60;59.15;96322.19;10439012;27;20037;-29
2022/12/29 18:08:31;;;;;;;10.18;3.53;;;;;;;16.62;59.59;96315.44;10450304;27;20023;-29
2022/12/29 18:13:33;;;;;;;5.68;2.85;;;;;;;16.61;59.59;96318.81;10526954;27;20479;-29
2022/12/29 18:18:34;;;;;;;10.00;2.80;;;;;;;16.66;58.88;96316.28;10455168;27;20183;-29
2022/12/29 18:23:34;;;;;;;10.77;4.57;;;;;;;16.52;59.75;96292.72;10473269;27;20626;-29
2022/12/29 18:28:34;;;;;;;14.03;5.20;;;;;;;16.60;60.98;96323.88;10403947;27;20029;-29
2022/12/29 18:33:35;;;;;;;14.30;5.67;;;;;;;16.61;60.78;96317.97;10516712;27;20293;-28
2022/12/29 18:38:35;;;;;;;17.07;5.10;;;;;;;16.57;61.00;96301.97;10463110;27;20606;-29
2022/12/29 18:43:35;;;;;;;12.77;6.73;;;;;;;16.48;61.23;96291.00;10397962;28;20047;-29
2022/12/29 18:48:36;;;;;;;11.10;4.67;;;;;;;16.56;60.42;96304.50;10401295;28;20507;-29
2022/12/29 18:53:37;;;;;;;12.45;4.22;;;;;;;16.58;60.09;96303.66;10397810;28;20095;-30
2022/12/29 18:58:38;;;;;;;11.27;4.68;;;;;;;16.56;60.64;96304.50;10401959;27;20029;-31
2022/12/29 19:03:38;;;;;;;9.98;4.35;;;;;;;16.58;60.31;96313.75;10477837;27;20074;-30
2022/12/29 19:08:38;;;;;;;11.80;4.87;;;;;;;16.57;60.58;96309.56;10399803;28;20113;-30
2022/12/29 19:13:39;;;;;;;7.10;3.90;;;;;;;16.57;60.75;96307.03;10394986;28;20773;-30
2022/12/29 19:18:39;;;;;;;9.77;4.00;;;;;;;16.62;60.48;96322.19;10397084;28;20112;-30
2022/12/29 19:23:40;;;;;;;12.27;5.40;;;;;;;16.64;60.43;96323.88;10393965;28;20037;-30
2022/12/29 19:28:40;;;;;;;18.63;6.22;;;;;;;16.67;61.51;96329.75;10425180;27;20424;-30
2022/12/29 19:33:40;;;;;;;11.07;3.93;;;;;;;16.70;60.84;96328.09;10392139;28;20037;-30
2022/12/29 19:38:41;;;;;;;12.40;4.87;;;;;;;16.66;61.21;96332.31;10414402;27;20170;-30
2022/12/29 19:43:42;;;;;;;11.63;4.90;;;;;;;16.64;61.35;96333.13;10393863;28;20804;-30
2022/12/29 19:48:42;;;;;;;11.33;5.07;;;;;;;16.64;61.49;96334.00;10408817;28;20033;-29
2022/12/29 19:53:44;;;;;;;13.07;4.80;;;;;;;16.61;61.89;96344.09;10411917;27;20057;-30
2022/12/29 19:58:45;;;;;;;8.43;4.03;;;;;;;16.59;62.11;96349.97;10408312;27;20033;-30
2022/12/29 20:03:45;;;;;;;12.02;4.32;;;;;;;16.61;61.84;96353.38;10414632;27;20052;-32
2022/12/29 20:08:46;;;;;;;9.88;3.83;;;;;;;16.61;60.99;96369.34;10397225;27;20083;-30
2022/12/29 20:13:46;;;;;;;10.32;3.90;;;;;;;16.63;61.31;96374.41;10466845;27;20063;-29
2022/12/29 20:18:47;;;;;;;9.02;3.95;;;;;;;16.63;61.21;96377.78;10457194;27;20033;-29
2022/12/29 20:23:48;;;;;;;8.98;3.88;;;;;;;16.64;61.13;96383.69;10453502;27;20045;-30
2022/12/29 20:28:50;;;;;;;9.75;4.70;;;;;;;16.63;60.98;96390.41;10417514;27;20045;-30
2022/12/29 20:33:50;;;;;;;8.35;3.00;;;;;;;16.62;60.94;96400.53;10469010;27;20072;-30
2022/12/29 20:38:52;;;;;;;5.87;3.10;;;;;;;16.61;61.11;96389.56;10430233;28;20038;-31
2022/12/29 20:43:53;;;;;;;8.52;3.42;;;;;;;16.61;61.28;96398.84;10403439;27;21182;-30
2022/12/29 20:48:53;;;;;;;7.72;3.95;;;;;;;16.59;61.36;96400.50;10414337;27;20057;-29
2022/12/29 20:53:53;;;;;;;9.33;3.27;;;;;;;16.59;61.42;96355.88;10459308;27;20033;-30
2022/12/29 20:58:54;;;;;;;9.63;3.13;;;;;;;16.59;61.28;96410.63;10420924;27;20380;-29
2022/12/29 21:03:55;;;;;;;7.93;2.78;;;;;;;16.60;61.26;96408.09;10458501;27;20284;-29
2022/12/29 21:08:56;;;;;;;7.57;3.25;;;;;;;16.60;61.00;96417.38;10452544;27;20036;-29
2022/12/29 21:13:57;;;;;;;7.32;3.15;;;;;;;16.60;61.25;96430.03;10407984;27;20025;-29
2022/12/29 21:18:58;;;;;;;10.05;3.58;;;;;;;16.60;61.46;96442.66;10470364;27;20509;-31
2022/12/29 21:24:04;;;;;;;6.93;3.03;;;;;;;16.63;61.29;96456.13;10403437;27;20043;-31
2022/12/29 21:29:04;;;;;;;9.32;2.90;;;;;;;16.62;60.96;96472.13;10424057;27;20037;-31
2022/12/29 21:34:06;;;;;;;6.75;3.00;;;;;;;16.60;60.94;96493.22;10434500;27;20046;-29
2022/12/29 21:39:06;;;;;;;7.93;2.85;;;;;;;16.60;61.40;96509.19;10448736;27;20485;-29
2022/12/29 21:49:27;;;;;;;6.68;2.60;;;;;;;16.58;61.33;96521.00;10450047;27;21230;-32
2022/12/29 22:15:56;;;;;;;3.97;2.40;;;;;;;16.55;61.91;96500.75;10398608;28;20036;-29
2022/12/29 22:20:56;;;;;;;9.57;2.50;;;;;;;16.53;61.93;96499.06;10402107;28;20670;-29
2022/12/29 22:26:01;;;;;;;6.17;2.43;;;;;;;16.49;61.80;96509.97;10402147;28;20291;-30
2022/12/29 22:31:01;;;;;;;6.72;2.28;;;;;;;16.53;61.69;96516.75;10397713;27;20291;-29
2022/12/29 22:36:02;;;;;;;8.23;2.90;;;;;;;16.56;62.51;96535.31;10405581;28;20396;-29
2022/12/29 22:41:02;;;;;;;6.53;2.67;;;;;;;16.56;62.10;96537.84;10399693;28;20534;-29
2022/12/29 22:46:05;;;;;;;3.35;2.45;;;;;;;16.55;61.71;96553.81;10397767;28;20049;-30
2022/12/29 22:51:06;;;;;;;6.13;2.72;;;;;;;16.54;61.62;96557.19;10401852;28;20043;-30
2022/12/29 22:56:11;;;;;;;9.95;2.70;;;;;;;16.55;61.66;96561.38;10461648;27;20509;-30
2022/12/29 23:01:15;;;;;;;4.47;2.63;;;;;;;16.52;62.04;96561.38;10438868;27;20120;-31
2022/12/29 23:06:16;;;;;;;5.10;2.45;;;;;;;16.51;61.50;96574.88;10396902;28;20509;-29
2022/12/29 23:11:16;;;;;;;4.55;2.13;;;;;;;16.54;61.52;96574.88;10400555;28;20033;-29
2022/12/29 23:16:17;;;;;;;5.90;2.40;;;;;;;16.56;61.57;96582.47;10400213;28;20048;-30
2022/12/29 23:21:19;;;;;;;5.15;2.13;;;;;;;16.53;61.71;96573.19;10395147;28;20554;-29
2022/12/29 23:26:29;;;;;;;6.15;2.95;;;;;;;16.52;61.72;96576.53;10395660;28;20037;-30
2022/12/29 23:31:30;;;;;;;7.78;2.50;;;;;;;16.54;61.98;96577.41;10397649;28;20116;-29
2022/12/29 23:36:31;;;;;;;4.07;2.33;;;;;;;16.53;61.68;96583.28;10397078;28;20033;-29
2022/12/29 23:41:31;;;;;;;5.13;2.22;;;;;;;16.54;62.14;96579.91;10397308;28;20033;-29
2022/12/29 23:46:31;;;;;;;4.07;1.87;;;;;;;16.52;61.76;96571.50;10398106;28;20037;-31
2022/12/29 23:51:32;;;;;;;4.47;2.70;;;;;;;16.54;62.06;96574.88;10399855;28;20400;-30
2022/12/29 23:56:32;;;;;;;10.52;2.85;;;;;;;16.55;62.18;96579.06;10390908;28;20292;-29
